createdAt,value
2023-01-07T00:01:38.360Z,11.90
2023-01-07T00:04:08.302Z,11.90
2023-01-07T00:06:39.719Z,11.90
2023-01-07T00:09:10.250Z,11.90
2023-01-07T00:11:39.925Z,12.00
2023-01-07T00:14:10.407Z,12.00
2023-01-07T00:16:38.802Z,12.00
2023-01-07T00:19:08.260Z,12.00
2023-01-07T00:21:35.266Z,12.10
2023-01-07T00:24:06.314Z,12.00
2023-01-07T00:26:36.173Z,12.00
2023-01-07T00:29:05.057Z,12.00
2023-01-07T00:31:37.356Z,12.00
2023-01-07T00:34:04.595Z,12.00
2023-01-07T00:36:38.486Z,12.00
2023-01-07T00:39:09.595Z,12.00
2023-01-07T00:41:36.834Z,12.00
2023-01-07T00:44:05.858Z,12.00
2023-01-07T00:46:34.433Z,12.00
2023-01-07T00:49:02.069Z,12.00
2023-01-07T00:51:29.114Z,12.00
2023-01-07T00:53:55.957Z,12.00
2023-01-07T00:56:22.775Z,12.00
2023-01-07T00:58:49.698Z,12.00
2023-01-07T01:01:16.643Z,12.00
2023-01-07T01:03:43.588Z,12.00
2023-01-07T01:06:16.036Z,12.00
2023-01-07T01:08:45.590Z,12.00
2023-01-07T01:11:14.952Z,12.00
2023-01-07T01:13:43.057Z,12.00
2023-01-07T01:16:14.030Z,12.10
2023-01-07T01:18:41.382Z,12.00
2023-01-07T01:21:13.736Z,12.00
2023-01-07T01:23:40.868Z,12.00
2023-01-07T01:26:13.608Z,12.00
2023-01-07T01:28:41.118Z,12.00
2023-01-07T01:31:10.863Z,12.00
2023-01-07T01:33:37.873Z,11.90
2023-01-07T01:36:11.949Z,12.00
2023-01-07T01:38:39.340Z,11.90
2023-01-07T01:41:07.441Z,12.00
2023-01-07T01:43:39.085Z,11.90
2023-01-07T01:46:21.833Z,11.90
2023-01-07T01:49:02.578Z,11.90
2023-01-07T01:51:34.860Z,12.00
2023-01-07T01:54:07.284Z,12.00
2023-01-07T01:56:40.047Z,11.90
2023-01-07T01:59:13.256Z,11.90
2023-01-07T02:01:40.225Z,11.90
2023-01-07T02:04:18.068Z,11.90
2023-01-07T02:07:09.410Z,12.00
2023-01-07T02:09:36.364Z,11.90
2023-01-07T02:12:42.326Z,11.90
2023-01-07T02:15:24.611Z,11.90
2023-01-07T02:18:19.512Z,11.90
2023-01-07T02:21:10.469Z,11.90
2023-01-07T02:24:02.049Z,11.90
2023-01-07T02:27:04.190Z,11.90
2023-01-07T02:29:58.644Z,11.90
2023-01-07T02:32:42.536Z,11.80
2023-01-07T02:35:28.115Z,11.80
2023-01-07T02:38:22.743Z,11.80
2023-01-07T02:41:21.256Z,11.80
2023-01-07T02:44:10.790Z,11.80
2023-01-07T02:46:50.009Z,11.80
2023-01-07T02:49:18.336Z,11.70
2023-01-07T02:51:47.043Z,11.70
2023-01-07T02:54:29.797Z,11.70
2023-01-07T02:57:43.078Z,11.70
2023-01-07T03:00:47.581Z,11.70
2023-01-07T03:03:42.399Z,11.70
2023-01-07T03:06:27.182Z,11.70
2023-01-07T03:09:14.910Z,11.70
2023-01-07T03:11:57.776Z,11.60
2023-01-07T03:14:53.291Z,11.70
2023-01-07T03:17:30.753Z,11.70
2023-01-07T03:20:03.829Z,11.70
2023-01-07T03:22:36.208Z,11.70
2023-01-07T03:25:06.631Z,11.70
2023-01-07T03:27:36.787Z,11.70
2023-01-07T03:30:12.915Z,11.70
2023-01-07T03:32:48.811Z,11.70
2023-01-07T03:35:17.173Z,11.70
2023-01-07T03:37:45.884Z,11.60
2023-01-07T03:40:13.484Z,11.70
2023-01-07T03:42:41.933Z,11.60
2023-01-07T03:45:18.985Z,11.50
2023-01-07T03:47:52.827Z,11.60
2023-01-07T03:50:20.518Z,11.50
2023-01-07T03:52:48.729Z,11.40
2023-01-07T03:55:15.860Z,11.40
2023-01-07T03:57:42.703Z,11.40
2023-01-07T04:00:12.676Z,11.40
2023-01-07T04:02:39.537Z,11.40
2023-01-07T04:05:06.913Z,11.40
2023-01-07T04:07:33.760Z,11.40
2023-01-07T04:10:00.886Z,11.40
2023-01-07T04:12:27.651Z,11.40
2023-01-07T04:14:54.539Z,11.30
2023-01-07T04:17:21.350Z,11.30
2023-01-07T04:19:48.284Z,11.40
2023-01-07T04:22:15.586Z,11.30
2023-01-07T04:24:42.483Z,11.30
2023-01-07T04:27:10.771Z,11.30
2023-01-07T04:29:40.380Z,11.20
2023-01-07T04:32:07.253Z,11.20
2023-01-07T04:34:34.087Z,11.20
2023-01-07T04:37:00.928Z,11.20
2023-01-07T04:39:27.733Z,11.10
2023-01-07T04:41:54.523Z,11.10
2023-01-07T04:44:21.441Z,11.10
2023-01-07T04:46:48.228Z,11.10
2023-01-07T04:49:15.083Z,11.10
2023-01-07T04:51:41.993Z,11.00
2023-01-07T04:54:08.843Z,11.00
2023-01-07T04:56:35.702Z,10.90
2023-01-07T04:59:02.505Z,10.90
2023-01-07T05:01:31.107Z,10.90
2023-01-07T05:03:59.204Z,10.80
2023-01-07T05:06:26.139Z,10.90
2023-01-07T05:08:54.086Z,10.80
2023-01-07T05:11:21.586Z,10.70
2023-01-07T05:13:49.995Z,10.70
2023-01-07T05:16:17.463Z,10.60
2023-01-07T05:18:44.861Z,10.50
2023-01-07T05:21:12.310Z,10.50
2023-01-07T05:23:39.235Z,10.40
2023-01-07T05:26:06.693Z,10.30
2023-01-07T05:28:33.601Z,10.30
2023-01-07T05:31:00.862Z,10.20
2023-01-07T05:33:28.357Z,10.10
2023-01-07T05:35:55.402Z,10.10
2023-01-07T05:38:22.275Z,10.00
2023-01-07T05:40:50.001Z,9.90
2023-01-07T05:43:17.572Z,10.00
2023-01-07T05:45:46.048Z,9.80
2023-01-07T05:48:13.901Z,9.80
2023-01-07T05:50:41.755Z,9.80
2023-01-07T05:53:08.709Z,9.70
2023-01-07T05:55:38.774Z,9.60
2023-01-07T05:58:06.824Z,9.50
2023-01-07T06:00:35.027Z,9.50
2023-01-07T06:03:02.318Z,9.40
2023-01-07T06:05:29.263Z,9.30
2023-01-07T06:07:56.168Z,9.30
2023-01-07T06:10:23.125Z,9.20
2023-01-07T06:12:51.340Z,9.20
2023-01-07T06:15:18.806Z,9.20
2023-01-07T06:17:45.675Z,9.10
2023-01-07T06:20:15.000Z,9.00
2023-01-07T06:22:43.310Z,9.00
2023-01-07T06:25:12.431Z,8.90
2023-01-07T06:27:42.970Z,8.90
2023-01-07T06:30:12.329Z,8.80
2023-01-07T06:32:41.656Z,8.80
2023-01-07T06:35:11.213Z,8.70
2023-01-07T06:37:39.102Z,8.70
2023-01-07T06:40:07.356Z,8.60
2023-01-07T06:42:34.610Z,8.60
2023-01-07T06:45:01.422Z,8.60
2023-01-07T06:47:28.256Z,8.50
2023-01-07T06:49:55.048Z,8.40
2023-01-07T06:52:21.975Z,8.40
2023-01-07T06:54:48.844Z,8.40
2023-01-07T06:57:15.835Z,8.30
2023-01-07T06:59:42.644Z,8.20
2023-01-07T07:02:20.123Z,8.20
2023-01-07T07:04:47.176Z,8.20
2023-01-07T07:07:14.028Z,8.10
2023-01-07T07:09:40.931Z,8.10
2023-01-07T07:12:08.678Z,8.00
2023-01-07T07:14:36.373Z,8.00
2023-01-07T07:17:04.710Z,8.00
2023-01-07T07:19:31.669Z,8.10
2023-01-07T07:21:58.597Z,7.90
2023-01-07T07:24:25.413Z,7.90
2023-01-07T07:26:52.286Z,7.90
2023-01-07T07:29:21.603Z,7.90
2023-01-07T07:31:48.596Z,7.80
2023-01-07T07:34:15.433Z,7.80
2023-01-07T07:36:42.293Z,7.80
2023-01-07T07:39:11.921Z,7.80
2023-01-07T07:41:38.726Z,7.70
2023-01-07T07:44:05.567Z,7.70
2023-01-07T07:46:32.470Z,7.70
2023-01-07T07:48:59.429Z,7.70
2023-01-07T07:51:26.328Z,7.60
2023-01-07T07:53:53.172Z,7.60
2023-01-07T07:56:20.077Z,7.70
2023-01-07T07:58:46.933Z,7.60
2023-01-07T08:01:13.816Z,7.60
2023-01-07T08:03:40.752Z,7.60
2023-01-07T08:06:07.837Z,7.70
2023-01-07T08:08:34.650Z,7.70
2023-01-07T08:11:03.919Z,7.70
2023-01-07T08:13:31.932Z,7.80
2023-01-07T08:15:58.835Z,7.80
2023-01-07T08:18:25.815Z,7.80
2023-01-07T08:20:52.687Z,7.90
2023-01-07T08:23:19.612Z,7.90
2023-01-07T08:25:46.507Z,7.90
2023-01-07T08:28:13.386Z,8.00
2023-01-07T08:30:40.354Z,8.00
2023-01-07T08:33:08.912Z,8.10
2023-01-07T08:35:35.836Z,8.10
2023-01-07T08:38:05.697Z,8.20
2023-01-07T08:40:33.750Z,8.20
2023-01-07T08:43:02.444Z,8.30
2023-01-07T08:45:30.594Z,8.50
2023-01-07T08:47:57.760Z,8.60
2023-01-07T08:50:30.496Z,8.90
2023-01-07T08:52:58.526Z,9.20
2023-01-07T08:55:26.041Z,9.60
2023-01-07T08:57:53.293Z,10.10
2023-01-07T09:00:21.103Z,10.60
2023-01-07T09:02:48.083Z,10.90
2023-01-07T09:05:15.172Z,11.20
2023-01-07T09:07:42.994Z,11.60
2023-01-07T09:10:11.618Z,11.90
2023-01-07T09:12:39.025Z,12.20
2023-01-07T09:15:07.080Z,12.50
2023-01-07T09:17:33.944Z,12.80
2023-01-07T09:20:03.767Z,13.00
2023-01-07T09:22:35.478Z,13.20
2023-01-07T09:25:02.538Z,13.50
2023-01-07T09:27:29.401Z,13.80
2023-01-07T09:29:58.486Z,14.00
2023-01-07T09:32:29.007Z,14.30
2023-01-07T09:34:56.040Z,14.50
2023-01-07T09:37:23.168Z,14.70
2023-01-07T09:39:50.101Z,14.80
2023-01-07T09:42:36.579Z,14.80
2023-01-07T09:45:20.357Z,14.80
2023-01-07T09:47:53.919Z,14.90
2023-01-07T09:50:52.395Z,15.10
2023-01-07T09:53:34.052Z,15.20
2023-01-07T09:56:11.086Z,15.40
2023-01-07T09:58:44.518Z,15.50
2023-01-07T10:01:30.533Z,15.50
2023-01-07T10:04:24.828Z,15.60
2023-01-07T10:07:29.146Z,15.70
2023-01-07T10:10:27.272Z,16.10
2023-01-07T10:13:27.410Z,16.50
2023-01-07T10:16:23.634Z,16.90
2023-01-07T10:19:24.440Z,17.40
2023-01-07T10:22:02.803Z,17.90
2023-01-07T10:24:39.459Z,18.30
2023-01-07T10:27:18.500Z,18.50
2023-01-07T10:29:58.709Z,18.40
2023-01-07T10:32:33.372Z,18.30
2023-01-07T10:35:01.649Z,18.00
2023-01-07T10:37:32.490Z,17.70
2023-01-07T10:40:29.816Z,17.40
2023-01-07T10:43:22.806Z,17.20
2023-01-07T10:46:09.607Z,16.80
2023-01-07T10:49:24.230Z,16.60
2023-01-07T10:52:11.327Z,16.30
2023-01-07T10:54:52.978Z,15.90
2023-01-07T10:57:24.381Z,15.60
2023-01-07T10:59:56.203Z,15.40
2023-01-07T11:02:28.613Z,15.20
2023-01-07T11:04:57.377Z,14.90
2023-01-07T11:07:57.072Z,14.80
2023-01-07T11:10:30.169Z,14.50
2023-01-07T11:13:03.111Z,14.30
2023-01-07T11:16:08.013Z,14.20
2023-01-07T11:19:14.697Z,14.00
2023-01-07T11:21:45.365Z,13.90
2023-01-07T11:24:27.104Z,13.90
2023-01-07T11:27:14.412Z,13.80
2023-01-07T11:30:04.457Z,13.80
2023-01-07T11:32:38.508Z,13.70
2023-01-07T11:35:22.459Z,13.70
2023-01-07T11:37:50.431Z,13.70
2023-01-07T11:40:22.273Z,13.60
2023-01-07T11:43:01.457Z,13.60
2023-01-07T11:46:21.036Z,13.60
2023-01-07T11:49:02.948Z,13.60
2023-01-07T11:51:40.382Z,13.70
2023-01-07T11:54:25.279Z,13.70
2023-01-07T11:56:55.197Z,13.70
2023-01-07T11:59:30.395Z,13.70
2023-01-07T12:01:59.694Z,13.70
2023-01-07T12:04:33.309Z,13.70
2023-01-07T12:07:07.862Z,13.60
2023-01-07T12:09:40.941Z,13.60
2023-01-07T12:12:39.266Z,13.50
2023-01-07T12:15:38.993Z,13.50
2023-01-07T12:18:08.826Z,13.40
2023-01-07T12:21:09.505Z,13.40
2023-01-07T12:23:55.604Z,13.40
2023-01-07T12:26:45.216Z,13.30
2023-01-07T12:29:36.213Z,13.30
2023-01-07T12:32:41.226Z,13.20
2023-01-07T12:35:29.468Z,13.20
2023-01-07T12:38:13.808Z,13.20
2023-01-07T12:40:59.955Z,13.20
2023-01-07T12:43:37.513Z,13.20
2023-01-07T12:46:13.626Z,13.20
2023-01-07T12:49:20.629Z,13.20
2023-01-07T12:52:12.965Z,13.20
2023-01-07T12:55:01.801Z,13.20
2023-01-07T12:57:37.255Z,13.20
2023-01-07T13:00:28.122Z,13.20
2023-01-07T13:03:24.723Z,13.20
2023-01-07T13:05:59.677Z,13.20
2023-01-07T13:08:43.498Z,13.20
2023-01-07T13:11:51.150Z,13.10
2023-01-07T13:14:37.478Z,13.10
2023-01-07T13:17:25.885Z,13.10
2023-01-07T13:19:54.243Z,13.10
2023-01-07T13:22:44.665Z,13.10
2023-01-07T13:25:26.401Z,13.10
2023-01-07T13:28:23.726Z,13.10
2023-01-07T13:31:18.557Z,13.20
2023-01-07T13:34:22.132Z,13.10
2023-01-07T13:37:39.534Z,13.20
2023-01-07T13:40:50.617Z,13.20
2023-01-07T13:43:55.189Z,13.30
2023-01-07T13:46:33.027Z,13.30
2023-01-07T13:49:00.201Z,13.30
2023-01-07T13:51:34.932Z,13.30
2023-01-07T13:54:02.059Z,13.40
2023-01-07T13:56:32.852Z,13.60
2023-01-07T13:59:00.519Z,13.80
2023-01-07T14:02:14.450Z,14.00
2023-01-07T14:04:50.528Z,14.20
2023-01-07T14:07:19.782Z,14.40
2023-01-07T14:09:46.854Z,14.60
2023-01-07T14:12:45.295Z,14.70
2023-01-07T14:15:27.546Z,14.80
2023-01-07T14:17:57.351Z,14.80
2023-01-07T14:20:45.775Z,14.80
2023-01-07T14:23:24.687Z,14.70
2023-01-07T14:26:51.756Z,14.60
2023-01-07T14:29:42.280Z,14.50
2023-01-07T14:32:27.035Z,14.40
2023-01-07T14:35:08.010Z,14.30
2023-01-07T14:37:42.222Z,14.20
2023-01-07T14:40:29.156Z,14.00
2023-01-07T14:43:41.047Z,13.80
2023-01-07T14:46:28.173Z,13.70
2023-01-07T14:49:41.400Z,13.60
2023-01-07T14:52:46.995Z,13.50
2023-01-07T14:55:34.213Z,13.30
2023-01-07T14:58:39.425Z,13.20
2023-01-07T15:01:15.461Z,13.10
2023-01-07T15:04:04.502Z,13.00
2023-01-07T15:06:35.777Z,12.90
2023-01-07T15:09:38.950Z,12.80
2023-01-07T15:12:36.884Z,12.70
2023-01-07T15:15:41.935Z,12.60
2023-01-07T15:18:11.047Z,12.50
2023-01-07T15:21:12.102Z,12.50
2023-01-07T15:23:38.747Z,12.40
2023-01-07T15:26:20.619Z,12.30
2023-01-07T15:29:23.532Z,12.20
2023-01-07T15:32:21.931Z,12.10
2023-01-07T15:34:49.053Z,12.00
2023-01-07T15:37:17.984Z,12.00
2023-01-07T15:39:50.206Z,11.90
2023-01-07T15:42:22.795Z,11.80
2023-01-07T15:44:58.958Z,11.70
2023-01-07T15:47:41.607Z,11.60
2023-01-07T15:50:31.120Z,11.50
2023-01-07T15:53:11.200Z,11.50
2023-01-07T15:55:45.722Z,11.40
2023-01-07T15:58:19.905Z,11.30
2023-01-07T16:00:58.287Z,11.10
2023-01-07T16:03:25.647Z,11.10
2023-01-07T16:05:53.322Z,11.00
2023-01-07T16:08:31.996Z,10.90
2023-01-07T16:11:06.647Z,10.70
2023-01-07T16:13:35.112Z,10.60
2023-01-07T16:16:05.972Z,10.50
2023-01-07T16:18:33.493Z,10.40
2023-01-07T16:21:14.508Z,10.30
2023-01-07T16:23:41.613Z,10.20
2023-01-07T16:26:17.783Z,10.20
2023-01-07T16:28:52.993Z,10.10
2023-01-07T16:31:28.801Z,10.00
2023-01-07T16:33:59.431Z,9.90
2023-01-07T16:36:37.531Z,9.90
2023-01-07T16:39:21.142Z,9.80
2023-01-07T16:41:48.711Z,9.70
2023-01-07T16:44:54.023Z,9.60
2023-01-07T16:47:41.054Z,9.50
2023-01-07T16:50:20.002Z,9.50
2023-01-07T16:52:54.336Z,9.40
2023-01-07T16:55:45.613Z,9.40
2023-01-07T16:58:49.063Z,9.30
2023-01-07T17:01:33.701Z,9.30
2023-01-07T17:04:08.589Z,9.20
2023-01-07T17:06:42.289Z,9.20
2023-01-07T17:09:28.607Z,9.10
2023-01-07T17:11:56.149Z,9.00
2023-01-07T17:14:36.554Z,9.00
2023-01-07T17:17:16.722Z,8.90
2023-01-07T17:20:12.481Z,8.90
2023-01-07T17:22:39.769Z,8.80
2023-01-07T17:25:09.594Z,8.80
2023-01-07T17:27:46.274Z,8.80
2023-01-07T17:30:19.920Z,8.80
2023-01-07T17:32:50.669Z,8.70
2023-01-07T17:35:24.065Z,8.60
2023-01-07T17:37:52.659Z,8.60
2023-01-07T17:40:20.723Z,8.60
2023-01-07T17:43:08.737Z,8.60
2023-01-07T17:45:35.820Z,8.50
2023-01-07T17:48:10.112Z,8.40
2023-01-07T17:50:37.286Z,8.40
2023-01-07T17:53:04.845Z,8.50
2023-01-07T17:55:35.419Z,8.40
2023-01-07T17:58:02.369Z,8.40
2023-01-07T18:00:31.152Z,8.30
2023-01-07T18:02:58.323Z,8.30
2023-01-07T18:05:26.631Z,8.30
2023-01-07T18:07:53.946Z,8.20
2023-01-07T18:10:28.859Z,8.20
2023-01-07T18:12:55.705Z,8.20
2023-01-07T18:15:26.440Z,8.20
2023-01-07T18:17:53.500Z,8.10
2023-01-07T18:20:22.441Z,8.10
2023-01-07T18:22:50.429Z,8.00
2023-01-07T18:25:22.484Z,8.00
2023-01-07T18:27:53.593Z,7.90
2023-01-07T18:30:22.928Z,7.80
2023-01-07T18:32:52.966Z,7.80
2023-01-07T18:35:20.194Z,7.70
2023-01-07T18:37:50.953Z,7.70
2023-01-07T18:40:18.045Z,7.60
2023-01-07T18:42:45.010Z,7.70
2023-01-07T18:45:12.750Z,7.50
2023-01-07T18:47:39.875Z,7.50
2023-01-07T18:50:07.981Z,7.40
2023-01-07T18:52:37.117Z,7.40
2023-01-07T18:55:04.479Z,7.40
2023-01-07T18:57:31.306Z,7.40
2023-01-07T18:59:58.150Z,7.40
2023-01-07T19:02:25.077Z,7.40
2023-01-07T19:04:51.951Z,7.30
2023-01-07T19:07:19.090Z,7.40
2023-01-07T19:09:46.069Z,7.30
2023-01-07T19:12:13.966Z,7.30
2023-01-07T19:14:41.433Z,7.30
2023-01-07T19:17:09.099Z,7.30
2023-01-07T19:19:47.459Z,7.30
2023-01-07T19:22:16.105Z,7.20
2023-01-07T19:24:43.229Z,7.20
2023-01-07T19:27:10.927Z,7.20
2023-01-07T19:29:37.924Z,7.20
2023-01-07T19:32:05.255Z,7.20
2023-01-07T19:34:32.258Z,7.20
2023-01-07T19:36:59.109Z,7.20
2023-01-07T19:39:26.201Z,7.20
2023-01-07T19:41:53.047Z,7.20
2023-01-07T19:44:19.861Z,7.20
2023-01-07T19:46:46.872Z,7.10
2023-01-07T19:49:13.736Z,7.10
2023-01-07T19:51:42.745Z,7.10
2023-01-07T19:54:16.217Z,7.10
2023-01-07T19:56:43.886Z,7.10
2023-01-07T19:59:11.200Z,7.10
2023-01-07T20:01:39.060Z,7.00
2023-01-07T20:04:08.690Z,7.00
2023-01-07T20:06:41.307Z,6.90
2023-01-07T20:09:11.069Z,6.90
2023-01-07T20:11:43.020Z,6.90
2023-01-07T20:14:14.201Z,6.80
2023-01-07T20:16:42.450Z,6.80
2023-01-07T20:19:11.413Z,6.70
2023-01-07T20:21:39.276Z,6.70
2023-01-07T20:24:06.820Z,6.60
2023-01-07T20:26:35.321Z,6.60
2023-01-07T20:29:02.287Z,6.50
2023-01-07T20:31:31.172Z,6.50
2023-01-07T20:33:59.236Z,6.50
2023-01-07T20:36:30.283Z,6.50
2023-01-07T20:38:57.569Z,6.40
2023-01-07T20:41:27.148Z,6.40
2023-01-07T20:43:57.530Z,6.40
2023-01-07T20:46:27.567Z,6.30
2023-01-07T20:48:56.027Z,6.30
2023-01-07T20:51:23.376Z,6.30
2023-01-07T20:53:50.504Z,6.30
2023-01-07T20:56:21.049Z,6.20
2023-01-07T20:58:49.149Z,6.20
2023-01-07T21:01:20.292Z,6.20
2023-01-07T21:03:47.736Z,6.20
2023-01-07T21:06:20.088Z,6.20
2023-01-07T21:08:50.429Z,6.30
2023-01-07T21:11:21.064Z,6.10
2023-01-07T21:13:49.178Z,6.10
2023-01-07T21:16:16.601Z,6.20
2023-01-07T21:18:43.949Z,6.20
2023-01-07T21:21:21.161Z,6.10
2023-01-07T21:23:49.550Z,6.10
2023-01-07T21:26:17.555Z,6.20
2023-01-07T21:28:44.791Z,6.10
2023-01-07T21:31:15.466Z,6.10
2023-01-07T21:33:42.753Z,6.10
2023-01-07T21:36:15.591Z,6.20
2023-01-07T21:38:43.268Z,6.10
2023-01-07T21:41:16.308Z,6.10
2023-01-07T21:43:44.033Z,6.00
2023-01-07T21:46:11.769Z,6.00
2023-01-07T21:48:41.793Z,6.00
2023-01-07T21:51:25.082Z,6.00
2023-01-07T21:53:55.902Z,6.10
2023-01-07T21:56:25.798Z,6.00
2023-01-07T21:58:52.876Z,6.00
2023-01-07T22:01:20.347Z,6.00
2023-01-07T22:03:49.862Z,6.00
2023-01-07T22:06:35.336Z,6.00
2023-01-07T22:09:08.002Z,6.10
2023-01-07T22:11:38.555Z,6.00
2023-01-07T22:14:05.447Z,6.00
2023-01-07T22:16:33.057Z,6.10
2023-01-07T22:19:00.097Z,6.00
2023-01-07T22:21:27.379Z,6.00
2023-01-07T22:23:54.197Z,6.10
2023-01-07T22:26:21.410Z,6.10
2023-01-07T22:29:01.821Z,6.10
2023-01-07T22:31:33.207Z,6.10
2023-01-07T22:34:00.114Z,6.10
2023-01-07T22:36:47.482Z,6.10
2023-01-07T22:39:23.187Z,6.10
2023-01-07T22:41:56.206Z,6.10
2023-01-07T22:44:33.560Z,6.10
2023-01-07T22:47:01.495Z,6.10
2023-01-07T22:49:30.909Z,6.10
2023-01-07T22:51:58.284Z,6.10
2023-01-07T22:54:26.078Z,6.10
2023-01-07T22:56:53.693Z,6.10
2023-01-07T22:59:20.589Z,6.10
2023-01-07T23:01:47.466Z,6.10
2023-01-07T23:04:14.388Z,6.10
2023-01-07T23:06:41.289Z,6.00
2023-01-07T23:09:08.142Z,6.10
2023-01-07T23:11:55.318Z,6.00
2023-01-07T23:14:23.821Z,6.10
2023-01-07T23:16:52.182Z,6.10
2023-01-07T23:19:20.707Z,6.00
2023-01-07T23:21:53.020Z,6.00
2023-01-07T23:24:20.799Z,6.00
2023-01-07T23:26:50.241Z,6.00
2023-01-07T23:29:18.226Z,6.00
2023-01-07T23:31:46.193Z,5.90
2023-01-07T23:34:14.892Z,6.10
2023-01-07T23:36:41.727Z,5.90
2023-01-07T23:39:08.630Z,5.90
2023-01-07T23:41:35.576Z,5.90
2023-01-07T23:44:02.693Z,5.80
2023-01-07T23:46:29.640Z,5.80
2023-01-07T23:48:56.522Z,5.80
2023-01-07T23:51:23.398Z,5.80
2023-01-07T23:53:50.327Z,5.80
2023-01-07T23:56:21.544Z,5.80
2023-01-07T23:58:49.345Z,5.80
